Monroe, MI (48161)

11:04 EDT 23. Říjen 2014 (GMT -0400)
Raisin Ridge | Change Station
CLOSE
Current Station
Osobní povětrnostní stanice
Location: Monroe, MI
Nadmořská výška: 614 ft
Poblíž povětrnostní stanice

Výška 614 ft 41.93 °N, 83.47 °W | Updated 4 minutes ago

Clear
Jasno
48.4 °F
Pocit jako 48 °F
S
0.0
Vítr proměnlivý Vítr od SZ

Dnes
Vysoké -- | Nízké -- °F
--% Možnost srážek
Včera
Vysoké -- | Nízké -- °F
Precip. -- inčů
7:55 AM 6:40 PM
Ubývající srpek, 0% visible
Tlak 30.24 inčů
Viditelnost 10.0 mílí
Zataženo Jasno
Ochlazování větrem 48 °F
Rosný bod 45 °F
Vlhkost 87%
Dešťové srážky 0.00 inčů
Sněhová pokrývka Není k dispozici
UV záření 3 ze 12
Pyl .10 ze 12
PM2.5 Střední
Flu Activity Sporadic
METAR KTTF 231455Z AUTO 00000KT 10SM CLR 09/06 A3024 RMK AO2

More Conditions Fewer Conditions

Tlak 30.24 inčů
Viditelnost 10.0 mílí
Zataženo Jasno
Ochlazování větrem 48 °F
Rosný bod 45 °F
Vlhkost 87%
Dešťové srážky 0.00 inčů
Sněhová pokrývka Není k dispozici
UV záření 3 ze 12
Pyl .10 ze 12
PM2.5 Střední
Flu Activity Sporadic
METAR KTTF 231455Z AUTO 00000KT 10SM CLR 09/06 A3024 RMK AO2

More Conditions Fewer Conditions

10-Day Weather Forecast

Almanac

Astronomie

Oct. 23, 2014 Východ Západ
Skutečný čas 07:55 EDT 18:40 EDT
Občanský soumrak 07:26 EDT 19:08 EDT
Námořní soumrak 06:54 EDT 19:41 EDT
Astronomický soumrak 06:22 EDT 20:13 EDT
Měsíc 07:33 EDT 18:41 EDT
Délka denního světla 11h 41m
Délka dne
10h 44m
Tomorrow will be 2m 38s shorter.
Ubývající srpek, 0% of the Moon is Illuminated
Dnes
Ubývající srpek
Říj 23
Nov
Říj 30
První čtvrť
Lis 6
Úplněk
Lis 14
Ubývající

Dnešní extrémy

State Highs State Lows

Community

WunderPhotos

Upload Photos

1,764,277 snímků staženo!

Nearby

Kvalita ovzduší

  Kvalita ovzduší Index kvality ovzduší Polutant
Včera Dobrý
PM10
Včera Dobrý
OZONE
Nyní Střední
PM2.5
Čtvrtek Dobrý
PM2.5
Pátek Střední
PM2.5
Sobota Dobrý
PM2.5
Neděle Dobrý
PM2.5
Pondělí Střední
PM2.5

Výška sněhu

Station Hloubka Nadmořská výška
Žádný nový sníh nebyl hlášen

Seizmická činnost

Město Distance Mag. Čas & datum
Žádné zemětřesení v okolí nebylo hlášeno
Minimální zobrazený rozsah je 2.5.

Pobřežní teplota vody

Lokalita Teplota
Marblehead, OH 51.1 °F

Poblíž povětrnostní stanice